Time;durP1;ratioP1;P1;durP2;ratioP2;P2;SDS_P1;SDS_P2;PMS_P1;PMS_P2;Temp;Humidity;BMP_temperature;BMP_pressure;BME280_temperature;BME280_humidity;BME280_pressure;Samples;Min_cycle;Max_cycle;Signal;HPM_P1;HPM_P2
2022/08/05 00:01:16;;;;;;;9.85;6.25;;;;;;;;;;7309595;19;162258;-15
2022/08/05 00:03:51;;;;;;;9.75;6.38;;;;;;;;;;7309151;19;163208;-15
2022/08/05 00:06:22;;;;;;;11.57;6.15;;;;;;;;;;7309985;19;154490;-15
2022/08/05 00:08:53;;;;;;;11.50;6.53;;;;;;;;;;7308312;19;154340;-16
2022/08/05 00:11:25;;;;;;;9.75;6.35;;;;;;;;;;7309379;19;163318;-15
2022/08/05 00:13:56;;;;;;;12.20;6.25;;;;;;;;;;7308848;19;162815;-16
2022/08/05 00:16:27;;;;;;;12.88;6.57;;;;;;;;;;7308725;19;154570;-14
2022/08/05 00:19:02;;;;;;;10.15;6.45;;;;;;;;;;7305908;19;154008;-16
2022/08/05 00:21:33;;;;;;;12.90;6.30;;;;;;;;;;7309033;19;162220;-16
2022/08/05 00:24:06;;;;;;;12.07;6.57;;;;;;;;;;7317355;19;162787;-15
2022/08/05 00:26:37;;;;;;;10.38;6.22;;;;;;;;;;7315886;19;154630;-15
2022/08/05 00:29:08;;;;;;;10.27;5.72;;;;;;;;;;7314812;19;154044;-16
2022/08/05 00:31:40;;;;;;;10.05;6.53;;;;;;;;;;7314344;19;162304;-15
2022/08/05 00:34:14;;;;;;;8.60;5.97;;;;;;;;;;7313570;19;163222;-16
2022/08/05 00:36:45;;;;;;;10.52;6.00;;;;;;;;;;7316550;19;154531;-15
2022/08/05 00:39:16;;;;;;;10.95;6.10;;;;;;;;;;7312809;19;153958;-15
2022/08/05 00:41:51;;;;;;;10.98;6.75;;;;;;;;;;7312168;19;134384;-14
2022/08/05 00:44:22;;;;;;;8.68;5.95;;;;;;;;;;7316688;19;162780;-15
2022/08/05 00:46:53;;;;;;;11.15;5.78;;;;;;;;;;7315217;19;154541;-15
2022/08/05 00:49:27;;;;;;;9.48;5.85;;;;;;;;;;7312368;19;154482;-16
2022/08/05 00:51:58;;;;;;;8.48;5.25;;;;;;;;;;7311234;19;162252;-15
2022/08/05 00:54:29;;;;;;;12.18;5.90;;;;;;;;;;7308611;19;163296;-15
2022/08/05 00:57:00;;;;;;;16.70;5.88;;;;;;;;;;7314798;19;154564;-15
2022/08/05 00:59:32;;;;;;;6.72;2.80;;;;;;;;;;7311613;19;153936;-15
2022/08/05 01:02:03;;;;;;;7.50;2.60;;;;;;;;;;7313798;19;163684;-15
2022/08/05 01:04:37;;;;;;;7.07;2.60;;;;;;;;;;7315162;19;163226;-15
2022/08/05 01:07:08;;;;;;;7.80;3.08;;;;;;;;;;7312028;19;154644;-16
2022/08/05 01:09:45;;;;;;;5.93;3.33;;;;;;;;;;7315723;19;154094;-16
2022/08/05 01:12:21;;;;;;;9.68;2.97;;;;;;;;;;7313702;19;162767;-15
2022/08/05 01:14:59;;;;;;;8.95;2.90;;;;;;;;;;7313147;19;162902;-15
2022/08/05 01:17:37;;;;;;;12.82;3.83;;;;;;;;;;7314360;19;154640;-15
2022/08/05 01:20:30;;;;;;;7.82;2.78;;;;;;;;;;7313988;19;153916;-15
2022/08/05 01:23:15;;;;;;;8.23;3.42;;;;;;;;;;7314164;19;162798;-15
2022/08/05 01:26:02;;;;;;;6.10;3.38;;;;;;;;;;7313655;19;163427;-15
2022/08/05 01:28:46;;;;;;;7.20;3.17;;;;;;;;;;7314574;19;154672;-15
2022/08/05 01:31:23;;;;;;;9.27;3.40;;;;;;;;;;7313855;19;154031;-16
2022/08/05 01:34:02;;;;;;;6.70;3.53;;;;;;;;;;7312396;19;162569;-16
2022/08/05 01:36:37;;;;;;;10.32;3.10;;;;;;;;;;7313194;19;162889;-15
2022/08/05 01:39:09;;;;;;;4.13;2.85;;;;;;;;;;7314487;19;154903;-15
2022/08/05 01:41:42;;;;;;;9.00;3.75;;;;;;;;;;7314520;19;154065;-16
2022/08/05 01:44:18;;;;;;;8.55;3.25;;;;;;;;;;7314367;19;162211;-16
2022/08/05 01:46:50;;;;;;;5.63;3.10;;;;;;;;;;7313806;19;162900;-15
2022/08/05 01:49:24;;;;;;;7.22;3.17;;;;;;;;;;7314667;19;154860;-16
2022/08/05 01:51:59;;;;;;;10.13;3.53;;;;;;;;;;7315768;19;154001;-15
2022/08/05 01:54:35;;;;;;;7.00;2.80;;;;;;;;;;7313017;19;162160;-16
2022/08/05 01:57:08;;;;;;;7.15;3.42;;;;;;;;;;7313021;19;162448;-16
2022/08/05 01:59:45;;;;;;;6.05;3.03;;;;;;;;;;7311177;19;154490;-15
2022/08/05 02:02:19;;;;;;;8.95;3.13;;;;;;;;;;7312904;19;154626;-15
2022/08/05 02:04:51;;;;;;;6.97;3.38;;;;;;;;;;7313050;19;162284;-15
2022/08/05 02:07:23;;;;;;;7.63;3.20;;;;;;;;;;7312907;19;162857;-15
2022/08/05 02:09:54;;;;;;;9.30;2.85;;;;;;;;;;7313200;19;154662;-15
2022/08/05 02:12:34;;;;;;;4.70;2.72;;;;;;;;;;7313622;19;154488;-15
2022/08/05 02:15:14;;;;;;;5.68;2.97;;;;;;;;;;7312225;19;162710;-15
2022/08/05 02:17:52;;;;;;;7.25;3.47;;;;;;;;;;7312868;19;163390;-16
2022/08/05 02:20:27;;;;;;;8.90;3.28;;;;;;;;;;7310036;19;154515;-16
2022/08/05 02:23:03;;;;;;;7.15;3.20;;;;;;;;;;7313872;19;153980;-16
2022/08/05 02:25:37;;;;;;;5.20;2.78;;;;;;;;;;7311836;19;162288;-15
2022/08/05 02:28:10;;;;;;;5.72;2.75;;;;;;;;;;7312383;19;163245;-16
2022/08/05 02:30:48;;;;;;;6.60;2.78;;;;;;;;;;7313263;19;154883;-18
2022/08/05 02:33:22;;;;;;;6.32;2.80;;;;;;;;;;7312647;19;153895;-16
2022/08/05 02:35:55;;;;;;;4.60;2.70;;;;;;;;;;7310626;19;162304;-17
2022/08/05 02:38:31;;;;;;;7.65;3.25;;;;;;;;;;7311636;19;163401;-16
2022/08/05 02:41:05;;;;;;;4.38;2.80;;;;;;;;;;7313027;19;154875;-16
2022/08/05 02:43:39;;;;;;;5.03;3.08;;;;;;;;;;7311968;19;154005;-16
2022/08/05 02:46:16;;;;;;;5.38;3.10;;;;;;;;;;7311379;19;162274;-16
2022/08/05 02:48:49;;;;;;;6.20;2.85;;;;;;;;;;7309727;19;162847;-16
2022/08/05 02:51:20;;;;;;;6.13;2.72;;;;;;;;;;7311849;19;154499;-16
2022/08/05 02:53:52;;;;;;;6.05;3.03;;;;;;;;;;7313331;19;153920;-16
2022/08/05 02:56:25;;;;;;;6.53;3.00;;;;;;;;;;7311392;19;162309;-16
2022/08/05 02:58:58;;;;;;;4.90;2.65;;;;;;;;;;7311498;19;163318;-16
2022/08/05 03:01:32;;;;;;;3.72;2.33;;;;;;;;;;7312620;19;155056;-16
2022/08/05 03:04:06;;;;;;;4.53;2.65;;;;;;;;;;7311297;19;154108;-16
2022/08/05 03:06:37;;;;;;;4.28;2.35;;;;;;;;;;7312063;19;162223;-16
2022/08/05 03:09:09;;;;;;;5.78;2.83;;;;;;;;;;7311522;19;163286;-16
2022/08/05 03:11:43;;;;;;;5.53;2.80;;;;;;;;;;7311935;19;154494;-16
2022/08/05 03:14:15;;;;;;;3.85;2.75;;;;;;;;;;7311841;19;153927;-15
2022/08/05 03:16:49;;;;;;;5.50;2.40;;;;;;;;;;7311402;19;162805;-14
2022/08/05 03:19:20;;;;;;;3.20;2.50;;;;;;;;;;7310485;19;163195;-16
2022/08/05 03:21:51;;;;;;;5.28;2.72;;;;;;;;;;7311616;19;154888;-16
2022/08/05 03:24:23;;;;;;;3.83;2.53;;;;;;;;;;7311378;19;154128;-16
2022/08/05 03:26:54;;;;;;;6.87;2.97;;;;;;;;;;7311300;19;162336;-15
2022/08/05 03:29:26;;;;;;;3.58;2.75;;;;;;;;;;7310880;19;162847;-16
2022/08/05 03:32:00;;;;;;;3.85;2.53;;;;;;;;;;7311159;19;155538;-16
2022/08/05 03:34:32;;;;;;;4.05;2.60;;;;;;;;;;7309994;19;153841;-16
2022/08/05 03:37:04;;;;;;;2.90;2.60;;;;;;;;;;7310688;19;163066;-16
2022/08/05 03:39:35;;;;;;;4.10;2.63;;;;;;;;;;7308437;19;162997;-16
2022/08/05 03:42:08;;;;;;;4.10;2.58;;;;;;;;;;7309471;19;154576;-16
2022/08/05 03:44:39;;;;;;;4.97;2.42;;;;;;;;;;7310878;19;155259;-16
2022/08/05 03:47:13;;;;;;;5.35;2.60;;;;;;;;;;7310635;19;162314;-16
2022/08/05 03:49:44;;;;;;;3.60;2.28;;;;;;;;;;7310114;19;162784;-16
2022/08/05 03:52:24;;;;;;;4.47;2.65;;;;;;;;;;7310626;19;154538;-15
2022/08/05 03:55:00;;;;;;;5.15;2.22;;;;;;;;;;7310499;19;154087;-16
2022/08/05 03:57:34;;;;;;;2.83;2.30;;;;;;;;;;7313530;19;162938;-16
2022/08/05 04:00:08;;;;;;;5.18;2.97;;;;;;;;;;7315957;19;163245;-16
2022/08/05 04:02:47;;;;;;;5.47;2.72;;;;;;;;;;7317523;19;154981;-15
2022/08/05 04:05:21;;;;;;;5.93;2.70;;;;;;;;;;7317482;19;154469;-16
2022/08/05 04:07:53;;;;;;;5.18;3.00;;;;;;;;;;7317007;19;162697;-16
2022/08/05 04:10:24;;;;;;;4.97;2.80;;;;;;;;;;7316811;19;162953;-15
2022/08/05 04:12:55;;;;;;;4.70;2.40;;;;;;;;;;7316929;19;154946;-16
2022/08/05 04:15:27;;;;;;;5.40;2.33;;;;;;;;;;7316945;19;154042;-16
2022/08/05 04:18:03;;;;;;;3.67;2.53;;;;;;;;;;7316475;19;162720;-16
2022/08/05 04:20:34;;;;;;;6.18;2.35;;;;;;;;;;7315356;19;162851;-16
2022/08/05 04:23:06;;;;;;;4.13;2.25;;;;;;;;;;7316541;19;154532;-16
2022/08/05 04:25:37;;;;;;;4.22;2.90;;;;;;;;;;7316563;19;154431;-16
2022/08/05 04:28:08;;;;;;;4.68;2.58;;;;;;;;;;7314661;19;162246;-16
2022/08/05 04:30:39;;;;;;;4.75;2.53;;;;;;;;;;7315814;19;163299;-16
2022/08/05 04:33:13;;;;;;;2.83;2.40;;;;;;;;;;7316491;19;154478;-16
2022/08/05 04:35:45;;;;;;;4.88;2.90;;;;;;;;;;7314007;19;154281;-16
2022/08/05 04:38:16;;;;;;;3.08;2.40;;;;;;;;;;7316122;19;162194;-16
2022/08/05 04:40:47;;;;;;;2.92;2.40;;;;;;;;;;7314642;19;163269;-16
2022/08/05 04:43:19;;;;;;;4.40;2.25;;;;;;;;;;7316272;19;154605;-16
2022/08/05 04:45:50;;;;;;;3.38;2.00;;;;;;;;;;7316113;19;154043;-16
2022/08/05 04:48:24;;;;;;;5.55;2.75;;;;;;;;;;7315695;19;162653;-16
2022/08/05 04:50:55;;;;;;;3.58;2.50;;;;;;;;;;7315608;19;162749;-16
2022/08/05 04:53:26;;;;;;;4.18;2.83;;;;;;;;;;7316027;19;154551;-16
2022/08/05 04:55:57;;;;;;;3.17;2.40;;;;;;;;;;7315887;19;154352;-16
2022/08/05 04:58:28;;;;;;;3.10;2.28;;;;;;;;;;7315241;19;162211;-16
2022/08/05 05:01:00;;;;;;;4.63;2.45;;;;;;;;;;7312407;19;163461;-16
2022/08/05 05:03:33;;;;;;;4.35;2.72;;;;;;;;;;7314464;19;154957;-16
2022/08/05 05:06:05;;;;;;;4.10;2.85;;;;;;;;;;7315622;19;154102;-16
2022/08/05 05:08:38;;;;;;;4.13;2.55;;;;;;;;;;7310661;19;162252;-16
2022/08/05 05:11:09;;;;;;;3.83;2.13;;;;;;;;;;7314919;19;162871;-15
2022/08/05 05:13:40;;;;;;;3.67;2.20;;;;;;;;;;7315576;19;154483;-16
2022/08/05 05:16:12;;;;;;;3.63;2.15;;;;;;;;;;7315227;19;153988;-16
2022/08/05 05:18:46;;;;;;;3.90;2.60;;;;;;;;;;7314779;19;162287;-15
2022/08/05 05:21:26;;;;;;;5.22;2.50;;;;;;;;;;7311683;19;162850;-16
2022/08/05 05:23:58;;;;;;;2.92;2.30;;;;;;;;;;7313868;19;154893;-15
2022/08/05 05:26:29;;;;;;;2.45;2.25;;;;;;;;;;7315321;19;154181;-15
2022/08/05 05:29:00;;;;;;;3.70;1.95;;;;;;;;;;7314706;19;163339;-15
2022/08/05 05:31:32;;;;;;;3.58;2.17;;;;;;;;;;7314659;19;162786;-15
2022/08/05 05:34:04;;;;;;;7.03;2.00;;;;;;;;;;7314323;19;154794;-15
2022/08/05 05:36:36;;;;;;;6.60;1.73;;;;;;;;;;7313245;19;154180;-15
2022/08/05 05:39:07;;;;;;;6.35;1.35;;;;;;;;;;7314297;19;162249;-15
2022/08/05 05:41:38;;;;;;;8.88;1.95;;;;;;;;;;7312873;19;162776;-16
2022/08/05 05:44:11;;;;;;;5.60;2.30;;;;;;;;;;7314691;19;154830;-16
2022/08/05 05:46:42;;;;;;;8.93;1.93;;;;;;;;;;7311865;19;154023;-15
2022/08/05 05:49:17;;;;;;;9.32;2.13;;;;;;;;;;7313463;19;162293;-16
2022/08/05 05:51:49;;;;;;;9.75;2.40;;;;;;;;;;7309358;19;163275;-16
2022/08/05 05:54:20;;;;;;;7.15;2.38;;;;;;;;;;7313582;19;155040;-16
2022/08/05 05:56:51;;;;;;;8.23;2.35;;;;;;;;;;7313591;19;154507;-15
2022/08/05 05:59:23;;;;;;;8.25;2.50;;;;;;;;;;7313806;19;162295;-15
2022/08/05 06:01:54;;;;;;;9.90;2.25;;;;;;;;;;7310765;19;162992;-16
2022/08/05 06:04:28;;;;;;;8.15;2.10;;;;;;;;;;7313972;19;154876;-16
2022/08/05 06:06:59;;;;;;;9.13;1.75;;;;;;;;;;7313965;19;153958;-15
2022/08/05 06:09:30;;;;;;;4.20;1.55;;;;;;;;;;7313304;19;162265;-18
2022/08/05 06:12:01;;;;;;;6.70;1.92;;;;;;;;;;7313087;19;162342;-15
2022/08/05 06:14:33;;;;;;;5.65;1.88;;;;;;;;;;7313485;19;154460;-16
2022/08/05 06:17:04;;;;;;;14.60;2.28;;;;;;;;;;7313468;19;154311;-15
2022/08/05 06:19:39;;;;;;;11.60;1.98;;;;;;;;;;7311805;19;162166;-15
2022/08/05 06:22:10;;;;;;;9.13;2.30;;;;;;;;;;7311455;19;163296;-15
2022/08/05 06:24:44;;;;;;;5.10;1.70;;;;;;;;;;7313441;19;154504;-16
2022/08/05 06:27:15;;;;;;;8.82;1.90;;;;;;;;;;7313172;19;153985;-16
2022/08/05 06:29:47;;;;;;;7.00;1.67;;;;;;;;;;7312860;19;162232;-15
2022/08/05 06:32:24;;;;;;;6.65;2.67;;;;;;;;;;7312741;19;163436;-15
2022/08/05 06:34:59;;;;;;;5.20;2.10;;;;;;;;;;7311255;19;154492;-16
2022/08/05 06:37:31;;;;;;;6.93;2.20;;;;;;;;;;7312055;19;153961;-16
2022/08/05 06:40:02;;;;;;;5.32;1.80;;;;;;;;;;7312632;19;162206;-16
2022/08/05 06:42:33;;;;;;;5.90;2.00;;;;;;;;;;7310608;19;162825;-16
2022/08/05 06:45:05;;;;;;;3.83;1.60;;;;;;;;;;7312610;19;154477;-16
2022/08/05 06:47:36;;;;;;;5.20;1.85;;;;;;;;;;7312967;19;154096;-16
2022/08/05 06:50:11;;;;;;;8.88;1.90;;;;;;;;;;7310509;19;162367;-15
2022/08/05 06:52:42;;;;;;;10.23;2.25;;;;;;;;;;7312152;19;162803;-16
2022/08/05 06:55:14;;;;;;;7.30;2.38;;;;;;;;;;7312192;19;154526;-16
2022/08/05 06:57:45;;;;;;;4.88;2.00;;;;;;;;;;7310593;19;156384;-16
2022/08/05 07:00:17;;;;;;;8.32;2.10;;;;;;;;;;7312100;19;162189;-16
2022/08/05 07:02:49;;;;;;;6.03;1.83;;;;;;;;;;7309778;19;163613;-15
2022/08/05 07:05:23;;;;;;;7.18;1.98;;;;;;;;;;7311942;19;154545;-16
2022/08/05 07:07:57;;;;;;;7.82;1.90;;;;;;;;;;7311983;19;153977;-16
2022/08/05 07:10:28;;;;;;;3.00;1.70;;;;;;;;;;7311486;19;162215;-15
2022/08/05 07:18:28;;;;;;;3.85;1.40;;;;;;;;;;7311400;19;154076;-16
2022/08/05 07:21:02;;;;;;;7.78;1.70;;;;;;;;;;7311031;19;162297;-16
2022/08/05 07:23:33;;;;;;;5.38;1.55;;;;;;;;;;7308898;19;162437;-16
2022/08/05 07:26:05;;;;;;;6.22;1.75;;;;;;;;;;7311363;19;154066;-16
2022/08/05 07:28:36;;;;;;;7.25;1.70;;;;;;;;;;7311231;19;154700;-16
2022/08/05 07:31:08;;;;;;;10.18;1.60;;;;;;;;;;7310839;19;162328;-16
2022/08/05 07:33:40;;;;;;;6.30;1.70;;;;;;;;;;7315031;19;163297;-16
2022/08/05 07:36:14;;;;;;;5.60;1.75;;;;;;;;;;7317926;19;154636;-16
2022/08/05 07:38:45;;;;;;;6.70;2.10;;;;;;;;;;7317632;19;154290;-16
2022/08/05 07:41:19;;;;;;;9.38;2.08;;;;;;;;;;7317069;19;162399;-16
2022/08/05 07:43:50;;;;;;;6.45;2.00;;;;;;;;;;7315427;19;163367;-16
2022/08/05 07:46:22;;;;;;;6.05;2.38;;;;;;;;;;7317802;19;154599;-16
2022/08/05 07:48:53;;;;;;;4.38;2.42;;;;;;;;;;7317168;19;154016;-16
2022/08/05 07:51:27;;;;;;;8.43;3.80;;;;;;;;;;7317089;19;162882;-16
2022/08/05 07:53:58;;;;;;;8.07;2.83;;;;;;;;;;7317089;19;163373;-16
2022/08/05 07:56:29;;;;;;;5.88;2.17;;;;;;;;;;7317406;19;154848;-18
2022/08/05 07:59:00;;;;;;;6.53;2.33;;;;;;;;;;7317057;19;154408;-16
2022/08/05 08:01:31;;;;;;;8.40;2.50;;;;;;;;;;7317107;19;162789;-16
2022/08/05 08:04:03;;;;;;;9.32;2.42;;;;;;;;;;7314831;19;163372;-15
2022/08/05 08:06:36;;;;;;;6.82;2.03;;;;;;;;;;7316292;19;154529;-16
2022/08/05 08:09:08;;;;;;;9.48;2.30;;;;;;;;;;7315502;19;154027;-16
2022/08/05 08:11:39;;;;;;;4.10;1.38;;;;;;;;;;7317008;19;162124;-16
2022/08/05 08:14:10;;;;;;;5.13;1.92;;;;;;;;;;7316512;19;162856;-16
2022/08/05 08:16:41;;;;;;;5.07;1.55;;;;;;;;;;7316729;19;154948;-17
2022/08/05 08:19:12;;;;;;;4.57;1.75;;;;;;;;;;7316579;19;153921;-17
2022/08/05 08:21:46;;;;;;;7.20;1.92;;;;;;;;;;7316449;19;162270;-16
2022/08/05 08:24:17;;;;;;;5.72;1.80;;;;;;;;;;7314458;19;163414;-27
2022/08/05 08:26:49;;;;;;;7.43;2.00;;;;;;;;;;7315967;19;154503;-16
2022/08/05 08:29:20;;;;;;;5.47;2.05;;;;;;;;;;7316600;19;154562;-16
2022/08/05 08:31:52;;;;;;;6.70;2.22;;;;;;;;;;7316592;19;162199;-16
2022/08/05 08:34:25;;;;;;;3.43;1.90;;;;;;;;;;7315490;19;163138;-17
2022/08/05 08:36:58;;;;;;;4.10;1.67;;;;;;;;;;7316854;19;154620;-16
2022/08/05 08:39:31;;;;;;;5.70;1.67;;;;;;;;;;7314667;19;154332;-19
2022/08/05 08:42:03;;;;;;;8.77;2.28;;;;;;;;;;7316012;19;162712;-17
2022/08/05 08:44:38;;;;;;;6.88;1.75;;;;;;;;;;7312897;19;162804;-17
2022/08/05 08:47:10;;;;;;;4.03;1.45;;;;;;;;;;7316488;19;154825;-16
2022/08/05 08:49:45;;;;;;;10.03;2.57;;;;;;;;;;7316109;19;154263;-17
2022/08/05 08:52:23;;;;;;;7.20;2.28;;;;;;;;;;7315836;19;162741;-16
2022/08/05 08:54:55;;;;;;;7.28;2.13;;;;;;;;;;7315709;19;163168;-17
2022/08/05 08:57:27;;;;;;;6.78;1.80;;;;;;;;;;7316073;19;154836;-17
2022/08/05 09:00:00;;;;;;;3.97;1.60;;;;;;;;;;7316058;19;154162;-16
2022/08/05 09:02:32;;;;;;;6.85;2.30;;;;;;;;;;7315482;19;162568;-17
2022/08/05 09:05:03;;;;;;;8.07;2.00;;;;;;;;;;7312901;19;163288;-17
2022/08/05 09:07:37;;;;;;;4.70;1.42;;;;;;;;;;7315699;19;154519;-17
2022/08/05 09:10:09;;;;;;;7.25;1.95;;;;;;;;;;7315539;19;154411;-16
2022/08/05 09:12:41;;;;;;;12.68;2.47;;;;;;;;;;7315200;19;162817;-17
2022/08/05 09:15:12;;;;;;;9.05;2.30;;;;;;;;;;7314876;19;162760;-17
2022/08/05 09:17:44;;;;;;;7.13;2.17;;;;;;;;;;7313566;19;154617;-17
2022/08/05 09:20:16;;;;;;;8.18;2.70;;;;;;;;;;7315055;19;154320;-17
2022/08/05 09:23:09;;;;;;;8.57;2.07;;;;;;;;;;7314957;19;161764;-16
2022/08/05 09:25:42;;;;;;;9.98;2.10;;;;;;;;;;7314845;19;163194;-16
2022/08/05 09:28:15;;;;;;;10.95;2.22;;;;;;;;;;7313609;19;155221;-16
2022/08/05 09:30:55;;;;;;;10.15;2.72;;;;;;;;;;7313289;19;154515;-16
2022/08/05 09:33:27;;;;;;;9.38;2.42;;;;;;;;;;7314327;19;162221;-17
2022/08/05 09:35:59;;;;;;;11.27;2.20;;;;;;;;;;7311758;19;162841;-17
2022/08/05 09:38:36;;;;;;;7.25;2.60;;;;;;;;;;7314742;19;154878;-17
2022/08/05 09:41:09;;;;;;;8.77;2.05;;;;;;;;;;7314811;19;154373;-16
2022/08/05 09:43:41;;;;;;;10.60;2.60;;;;;;;;;;7313419;19;162231;-17
2022/08/05 09:46:27;;;;;;;6.53;2.07;;;;;;;;;;7313597;19;162785;-17
2022/08/05 09:49:03;;;;;;;8.15;2.13;;;;;;;;;;7313995;19;154464;-17
2022/08/05 09:51:36;;;;;;;8.73;2.13;;;;;;;;;;7313956;19;153897;-17
2022/08/05 09:54:10;;;;;;;9.10;2.08;;;;;;;;;;7312998;19;162289;-17
2022/08/05 09:56:45;;;;;;;12.32;2.40;;;;;;;;;;7312197;19;163195;-16
2022/08/05 09:59:16;;;;;;;12.10;2.63;;;;;;;;;;7313259;19;154362;-17
2022/08/05 10:01:47;;;;;;;8.27;2.00;;;;;;;;;;7313830;19;154338;-17
2022/08/05 10:04:19;;;;;;;10.13;1.90;;;;;;;;;;7312345;19;162739;-16
2022/08/05 10:06:57;;;;;;;10.10;2.45;;;;;;;;;;7312902;19;163577;-16
2022/08/05 10:09:31;;;;;;;13.55;2.40;;;;;;;;;;7313300;19;154654;-16
2022/08/05 10:12:12;;;;;;;7.57;2.10;;;;;;;;;;7313252;19;154420;-17
2022/08/05 10:14:43;;;;;;;9.45;2.85;;;;;;;;;;7311927;19;162289;-17
2022/08/05 10:17:16;;;;;;;5.72;2.15;;;;;;;;;;7312498;19;162813;-16
2022/08/05 10:19:48;;;;;;;9.93;2.90;;;;;;;;;;7312414;19;155090;-17
2022/08/05 10:22:19;;;;;;;9.57;2.22;;;;;;;;;;7313253;19;154606;-17
2022/08/05 10:24:53;;;;;;;7.60;2.25;;;;;;;;;;7311376;19;162290;-17
2022/08/05 10:27:26;;;;;;;5.13;2.10;;;;;;;;;;7312667;19;163347;-16
2022/08/05 10:29:57;;;;;;;9.00;2.50;;;;;;;;;;7313306;19;154760;-16
2022/08/05 10:32:28;;;;;;;6.00;2.10;;;;;;;;;;7313043;19;154294;-17
2022/08/05 10:35:00;;;;;;;8.48;2.13;;;;;;;;;;7310794;19;162682;-17
2022/08/05 10:37:32;;;;;;;6.07;1.60;;;;;;;;;;7312166;19;163172;-17
2022/08/05 10:40:16;;;;;;;5.93;1.92;;;;;;;;;;7312725;19;154525;-17
2022/08/05 10:42:53;;;;;;;5.43;1.88;;;;;;;;;;7312690;19;153984;-17
2022/08/05 10:45:29;;;;;;;7.15;2.15;;;;;;;;;;7310557;19;162584;-16
2022/08/05 10:48:00;;;;;;;9.75;2.70;;;;;;;;;;7311383;19;163200;-17
2022/08/05 10:50:31;;;;;;;9.40;2.00;;;;;;;;;;7312341;19;155100;-16
2022/08/05 10:53:03;;;;;;;5.40;1.85;;;;;;;;;;7312304;19;154493;-17
2022/08/05 10:55:57;;;;;;;8.23;2.22;;;;;;;;;;7311655;19;162643;-17
2022/08/05 10:58:28;;;;;;;8.38;2.28;;;;;;;;;;7311613;19;162886;-17
2022/08/05 11:00:59;;;;;;;6.05;1.92;;;;;;;;;;7312012;19;154415;-17
2022/08/05 11:03:31;;;;;;;6.72;2.03;;;;;;;;;;7312010;19;154037;-16
2022/08/05 11:06:10;;;;;;;3.85;1.90;;;;;;;;;;7309260;19;162552;-17
2022/08/05 11:09:19;;;;;;;4.35;1.42;;;;;;;;;;7310863;19;162845;-17
2022/08/05 11:11:56;;;;;;;4.55;2.00;;;;;;;;;;7311499;19;154584;-17
2022/08/05 11:14:30;;;;;;;7.10;1.83;;;;;;;;;;7311543;19;153939;-17
2022/08/05 11:17:33;;;;;;;6.47;2.00;;;;;;;;;;7311204;19;162669;-17
2022/08/05 11:20:05;;;;;;;5.07;1.88;;;;;;;;;;7310951;19;162982;-17
2022/08/05 11:22:46;;;;;;;4.45;1.70;;;;;;;;;;7311873;19;154534;-16
2022/08/05 11:25:34;;;;;;;4.13;2.10;;;;;;;;;;7308670;19;153943;-17
2022/08/05 11:28:45;;;;;;;7.40;2.20;;;;;;;;;;7310671;19;162214;-17
2022/08/05 11:31:31;;;;;;;5.72;1.85;;;;;;;;;;7309670;19;163287;-17
2022/08/05 11:34:07;;;;;;;5.13;1.60;;;;;;;;;;7310817;19;154615;-17
2022/08/05 11:36:49;;;;;;;7.32;2.00;;;;;;;;;;7310993;19;153926;-17
2022/08/05 11:39:51;;;;;;;9.77;2.53;;;;;;;;;;7310535;19;162173;-17
2022/08/05 11:42:26;;;;;;;4.38;1.67;;;;;;;;;;7310261;19;163240;-17
2022/08/05 11:45:04;;;;;;;7.65;1.80;;;;;;;;;;7310199;19;154438;-17
2022/08/05 11:47:38;;;;;;;2.50;1.55;;;;;;;;;;7310664;19;154691;-17
2022/08/05 11:50:10;;;;;;;3.25;1.60;;;;;;;;;;7309933;19;162397;-17
2022/08/05 11:52:41;;;;;;;4.90;1.80;;;;;;;;;;7310081;19;163282;-17
2022/08/05 11:55:14;;;;;;;4.90;1.92;;;;;;;;;;7310301;19;154504;-17
2022/08/05 11:57:47;;;;;;;6.40;2.00;;;;;;;;;;7310046;19;154085;-17
2022/08/05 12:00:31;;;;;;;4.57;1.70;;;;;;;;;;7309498;19;162617;-17
2022/08/05 12:03:19;;;;;;;4.50;1.90;;;;;;;;;;7309779;19;162878;-15
2022/08/05 12:05:51;;;;;;;3.90;1.58;;;;;;;;;;7309025;19;155016;-17
2022/08/05 12:08:22;;;;;;;9.20;1.60;;;;;;;;;;7310202;19;154192;-17
2022/08/05 12:10:55;;;;;;;4.30;1.63;;;;;;;;;;7309905;19;162646;-16
2022/08/05 12:13:26;;;;;;;3.13;1.67;;;;;;;;;;7309554;19;163246;-17
2022/08/05 12:16:00;;;;;;;4.45;1.80;;;;;;;;;;7309893;19;154612;-17
2022/08/05 12:18:35;;;;;;;3.83;1.70;;;;;;;;;;7312461;19;154263;-17
2022/08/05 12:21:15;;;;;;;6.32;1.55;;;;;;;;;;7316086;19;162915;-16
2022/08/05 12:24:02;;;;;;;4.50;1.80;;;;;;;;;;7315939;19;163757;-16
2022/08/05 12:26:37;;;;;;;6.88;1.77;;;;;;;;;;7314796;19;154847;-16
2022/08/05 12:29:09;;;;;;;2.70;1.70;;;;;;;;;;7316438;19;154344;-17
2022/08/05 12:31:47;;;;;;;3.70;1.70;;;;;;;;;;7315822;19;162641;-17
2022/08/05 12:34:21;;;;;;;4.03;1.50;;;;;;;;;;7315054;19;162859;-17
2022/08/05 12:36:54;;;;;;;3.63;1.70;;;;;;;;;;7316100;19;154930;-16
2022/08/05 12:39:27;;;;;;;3.70;1.58;;;;;;;;;;7316133;19;154050;-17
2022/08/05 12:42:00;;;;;;;4.72;1.55;;;;;;;;;;7314593;19;162253;-16
2022/08/05 12:44:31;;;;;;;5.40;1.70;;;;;;;;;;7315625;19;162786;-16
2022/08/05 12:47:07;;;;;;;5.20;1.40;;;;;;;;;;7314152;19;154932;-16
2022/08/05 12:49:43;;;;;;;5.45;1.55;;;;;;;;;;7315694;19;155960;-16
2022/08/05 12:52:15;;;;;;;4.72;1.40;;;;;;;;;;7315511;19;162721;-16
2022/08/05 12:54:49;;;;;;;4.88;1.92;;;;;;;;;;7315350;19;162358;-16
2022/08/05 12:57:21;;;;;;;4.68;1.55;;;;;;;;;;7315846;19;155993;-16
2022/08/05 12:59:54;;;;;;;7.68;1.80;;;;;;;;;;7313899;19;154503;-18
2022/08/05 13:02:29;;;;;;;4.10;1.65;;;;;;;;;;7313333;19;162270;-16
2022/08/05 13:05:00;;;;;;;5.43;1.63;;;;;;;;;;7315024;19;163251;-16
2022/08/05 13:07:32;;;;;;;3.75;1.50;;;;;;;;;;7313452;19;154545;-16
2022/08/05 13:10:24;;;;;;;4.10;1.55;;;;;;;;;;7314770;19;154501;-15
2022/08/05 13:12:57;;;;;;;3.33;1.55;;;;;;;;;;7313300;19;162783;-15
2022/08/05 13:15:33;;;;;;;9.80;1.75;;;;;;;;;;7314487;19;162747;-15
2022/08/05 13:18:06;;;;;;;8.73;2.13;;;;;;;;;;7313268;19;154568;-15
2022/08/05 13:20:38;;;;;;;4.88;1.92;;;;;;;;;;7314966;19;153995;-15
2022/08/05 13:23:09;;;;;;;11.63;2.47;;;;;;;;;;7314241;19;162251;-15
2022/08/05 13:25:40;;;;;;;17.45;5.25;;;;;;;;;;7314159;19;162774;-15
2022/08/05 13:28:12;;;;;;;17.10;5.22;;;;;;;;;;7313080;19;154531;-15
2022/08/05 13:30:43;;;;;;;28.70;7.10;;;;;;;;;;7310892;19;154158;-16
2022/08/05 13:33:17;;;;;;;13.15;3.05;;;;;;;;;;7313930;19;162209;-15
2022/08/05 13:35:48;;;;;;;10.77;3.20;;;;;;;;;;7311469;19;163288;-15
2022/08/05 13:38:19;;;;;;;6.95;2.50;;;;;;;;;;7314570;19;155010;-16
2022/08/05 13:40:50;;;;;;;9.60;2.40;;;;;;;;;;7314119;19;153941;-16
2022/08/05 13:43:21;;;;;;;9.18;3.28;;;;;;;;;;7313929;19;162214;-15
2022/08/05 13:45:53;;;;;;;8.77;3.22;;;;;;;;;;7313918;19;162877;-15
2022/08/05 13:48:27;;;;;;;10.13;3.33;;;;;;;;;;7314326;19;155153;-15
2022/08/05 13:51:07;;;;;;;9.05;3.33;;;;;;;;;;7314141;19;154379;-15
2022/08/05 13:53:38;;;;;;;9.85;3.47;;;;;;;;;;7313744;19;162877;-16
2022/08/05 13:56:10;;;;;;;11.13;4.00;;;;;;;;;;7313473;19;162790;-16
2022/08/05 13:58:42;;;;;;;9.60;3.55;;;;;;;;;;7314020;19;154253;-15
2022/08/05 14:01:13;;;;;;;11.85;3.55;;;;;;;;;;7313732;19;153955;-15
2022/08/05 14:06:34;;;;;;;7.43;3.75;;;;;;;;;;7312377;19;162913;-15
2022/08/05 14:09:05;;;;;;;12.02;4.63;;;;;;;;;;7313594;19;154597;-16
2022/08/05 14:11:39;;;;;;;7.90;4.03;;;;;;;;;;7311819;19;154418;-15
2022/08/05 14:14:11;;;;;;;11.00;3.70;;;;;;;;;;7312796;19;162515;-15
2022/08/05 14:16:42;;;;;;;10.85;3.80;;;;;;;;;;7312971;19;162903;-15
2022/08/05 14:19:16;;;;;;;12.55;3.90;;;;;;;;;;7313191;19;154532;-15
2022/08/05 14:21:47;;;;;;;22.05;6.68;;;;;;;;;;7311425;19;154761;-15
2022/08/05 14:24:18;;;;;;;19.40;8.32;;;;;;;;;;7312577;19;162214;-15
2022/08/05 14:26:49;;;;;;;27.35;8.38;;;;;;;;;;7312018;19;162679;-16
2022/08/05 14:29:26;;;;;;;14.50;5.50;;;;;;;;;;7313158;19;154605;-15
2022/08/05 14:31:57;;;;;;;16.85;5.82;;;;;;;;;;7311335;19;154145;-15
2022/08/05 14:34:31;;;;;;;18.73;6.32;;;;;;;;;;7311247;19;162682;-15
2022/08/05 14:37:02;;;;;;;16.75;5.97;;;;;;;;;;7312174;19;162838;-15
2022/08/05 14:39:34;;;;;;;15.15;6.22;;;;;;;;;;7312628;19;155189;-16
2022/08/05 14:42:06;;;;;;;12.77;5.82;;;;;;;;;;7311601;19;154359;-16
2022/08/05 14:44:47;;;;;;;14.90;6.03;;;;;;;;;;7310470;19;161873;-16
2022/08/05 14:47:18;;;;;;;16.85;6.15;;;;;;;;;;7310963;19;162738;-16
2022/08/05 14:49:52;;;;;;;14.35;6.28;;;;;;;;;;7312080;19;154600;-16
2022/08/05 14:52:24;;;;;;;16.55;6.50;;;;;;;;;;7312000;19;154142;-16
2022/08/05 14:55:07;;;;;;;11.00;5.07;;;;;;;;;;7310400;19;162354;-14
2022/08/05 14:57:38;;;;;;;14.82;6.30;;;;;;;;;;7311427;19;163174;-15
2022/08/05 15:00:13;;;;;;;13.88;6.50;;;;;;;;;;7311829;19;155019;-15
2022/08/05 15:02:44;;;;;;;15.23;5.80;;;;;;;;;;7311703;19;154328;-16
2022/08/05 15:05:18;;;;;;;12.77;5.43;;;;;;;;;;7311508;19;162205;-15
2022/08/05 15:07:50;;;;;;;14.63;5.22;;;;;;;;;;7310160;19;162836;-15
2022/08/05 15:10:21;;;;;;;19.38;5.85;;;;;;;;;;7311586;19;154598;-15
2022/08/05 15:12:52;;;;;;;11.65;4.93;;;;;;;;;;7311604;19;154068;-17
2022/08/05 15:15:30;;;;;;;13.15;5.55;;;;;;;;;;7311625;19;162872;-15